Time;durP1;ratioP1;P1;durP2;ratioP2;P2;SDS_P1;SDS_P2;PMS_P1;PMS_P2;Temp;Humidity;BMP_temperature;BMP_pressure;BME280_temperature;BME280_humidity;BME280_pressure;Samples;Min_cycle;Max_cycle;Signal;HPM_P1;HPM_P2
2023/08/12 00:03:38;;;;;;;;;;;22.60;70.20;;;;;;10131948;28;93547;-66
2023/08/12 00:08:40;;;;;;;;;;;22.70;70.30;;;;;;10148641;28;96834;-66
2023/08/12 00:13:42;;;;;;;;;;;22.60;70.10;;;;;;10154387;28;96156;-66
2023/08/12 00:18:46;;;;;;;;;;;22.70;70.10;;;;;;10165639;28;93979;-67
2023/08/12 00:23:50;;;;;;;;;;;22.70;70.10;;;;;;10152464;28;93313;-66
2023/08/12 00:28:52;;;;;;;;;;;22.70;70.00;;;;;;10135034;28;93531;-66
2023/08/12 00:33:54;;;;;;;;;;;22.70;70.00;;;;;;10124053;28;94284;-67
2023/08/12 00:38:56;;;;;;;;;;;22.70;70.00;;;;;;10129481;28;94321;-67
2023/08/12 00:43:59;;;;;;;;;;;22.70;70.00;;;;;;10121095;28;92911;-66
2023/08/12 00:49:00;;;;;;;;;;;22.70;70.00;;;;;;10140587;28;94196;-67
2023/08/12 00:54:06;;;;;;;;;;;22.70;70.00;;;;;;10144541;28;94398;-68
2023/08/12 00:59:09;;;;;;;;;;;22.70;69.90;;;;;;10142111;28;95815;-67
2023/08/12 01:04:10;;;;;;;;;;;22.70;70.00;;;;;;10140079;28;94080;-66
2023/08/12 01:09:12;;;;;;;;;;;22.60;69.90;;;;;;10133940;28;94486;-67
2023/08/12 01:14:18;;;;;;;;;;;22.60;70.10;;;;;;10122903;28;93708;-68
2023/08/12 01:19:30;;;;;;;;;;;22.60;70.00;;;;;;10136872;28;93923;-67
2023/08/12 01:24:41;;;;;;;;;;;22.60;70.10;;;;;;10140841;28;94153;-67
2023/08/12 01:29:45;;;;;;;;;;;22.60;70.10;;;;;;10152126;28;93915;-67
2023/08/12 01:35:07;;;;;;;;;;;22.60;70.10;;;;;;10126543;28;93992;-67
2023/08/12 01:40:10;;;;;;;;;;;22.50;70.10;;;;;;10138648;28;93759;-67
2023/08/12 01:45:11;;;;;;;;;;;22.50;70.20;;;;;;10147116;28;94892;-67
2023/08/12 01:50:15;;;;;;;;;;;22.50;70.30;;;;;;10131127;28;96420;-66
2023/08/12 01:55:20;;;;;;;;;;;22.50;70.40;;;;;;10131237;28;94074;-67
2023/08/12 02:00:22;;;;;;;;;;;22.50;70.50;;;;;;10118075;28;94343;-66
2023/08/12 02:05:25;;;;;;;;;;;22.50;70.50;;;;;;10125611;28;95523;-66
2023/08/12 02:10:28;;;;;;;;;;;22.50;70.40;;;;;;10131784;28;94456;-67
2023/08/12 02:15:30;;;;;;;;;;;22.50;70.50;;;;;;10131603;28;93901;-66
2023/08/12 02:20:31;;;;;;;;;;;22.40;70.50;;;;;;10129864;28;94614;-66
2023/08/12 02:25:33;;;;;;;;;;;22.40;70.50;;;;;;10122138;28;93838;-66
2023/08/12 02:30:35;;;;;;;;;;;22.40;70.50;;;;;;10115024;28;94498;-65
2023/08/12 02:35:37;;;;;;;;;;;22.40;70.50;;;;;;10126733;28;94938;-66
2023/08/12 02:40:39;;;;;;;;;;;22.40;70.50;;;;;;10114425;28;96491;-66
2023/08/12 02:45:41;;;;;;;;;;;22.40;70.50;;;;;;10132769;28;94452;-66
2023/08/12 02:50:43;;;;;;;;;;;22.40;70.60;;;;;;10134312;28;94246;-67
2023/08/12 02:55:47;;;;;;;;;;;22.40;70.60;;;;;;10123445;28;94316;-66
2023/08/12 03:00:54;;;;;;;;;;;22.40;70.70;;;;;;10104380;28;94037;-66
2023/08/12 03:05:57;;;;;;;;;;;22.30;70.70;;;;;;10109213;28;94003;-66
2023/08/12 03:11:01;;;;;;;;;;;22.30;70.80;;;;;;10118652;28;93810;-66
2023/08/12 03:16:03;;;;;;;;;;;22.30;70.80;;;;;;10120351;28;92991;-66
2023/08/12 03:21:06;;;;;;;;;;;22.30;70.90;;;;;;10139203;28;93444;-65
2023/08/12 03:26:11;;;;;;;;;;;22.30;70.90;;;;;;10113280;28;94179;-66
2023/08/12 03:31:13;;;;;;;;;;;22.30;71.00;;;;;;10135753;28;95766;-67
2023/08/12 03:36:16;;;;;;;;;;;22.30;71.10;;;;;;10123930;28;95042;-67
2023/08/12 03:41:18;;;;;;;;;;;22.30;71.10;;;;;;10114966;28;93598;-66
2023/08/12 03:46:21;;;;;;;;;;;22.30;71.20;;;;;;10144034;28;93996;-66
2023/08/12 03:51:23;;;;;;;;;;;22.30;71.30;;;;;;10139462;28;96265;-66
2023/08/12 03:56:26;;;;;;;;;;;22.30;71.30;;;;;;10137258;28;94127;-66
2023/08/12 04:01:28;;;;;;;;;;;22.30;71.30;;;;;;10113611;28;95791;-66
2023/08/12 04:06:30;;;;;;;;;;;22.30;71.20;;;;;;10128096;28;93582;-66
2023/08/12 04:11:33;;;;;;;;;;;22.30;71.30;;;;;;10143630;28;94383;-66
2023/08/12 04:16:36;;;;;;;;;;;22.30;71.40;;;;;;10133334;28;94753;-66
2023/08/12 04:21:38;;;;;;;;;;;22.20;71.40;;;;;;10144068;28;96165;-66
2023/08/12 04:26:40;;;;;;;;;;;22.20;71.40;;;;;;10132942;28;94795;-66
2023/08/12 04:31:42;;;;;;;;;;;22.30;71.70;;;;;;10129086;28;93488;-66
2023/08/12 04:36:45;;;;;;;;;;;22.30;71.50;;;;;;10122699;28;94170;-67
2023/08/12 04:41:48;;;;;;;;;;;22.20;71.60;;;;;;10147992;28;94430;-68
2023/08/12 04:52:11;;;;;;;;;;;22.30;71.70;;;;;;9607370;22;93804;-63
2023/08/12 04:57:12;;;;;;;;;;;22.30;71.80;;;;;;10130969;28;95144;-63
2023/08/12 05:02:15;;;;;;;;;;;22.30;71.70;;;;;;10142836;28;93792;-63
2023/08/12 05:07:19;;;;;;;;;;;22.30;71.70;;;;;;10135060;28;93497;-63
2023/08/12 05:12:22;;;;;;;;;;;22.30;71.70;;;;;;10128599;28;96856;-63
2023/08/12 05:17:25;;;;;;;;;;;22.30;71.60;;;;;;10116581;28;96335;-63
2023/08/12 05:22:27;;;;;;;;;;;22.30;71.70;;;;;;10131624;28;95538;-64
2023/08/12 05:27:30;;;;;;;;;;;22.30;71.70;;;;;;10109430;28;94809;-63
2023/08/12 05:32:33;;;;;;;;;;;22.40;71.80;;;;;;10141606;28;96086;-63
2023/08/12 05:37:35;;;;;;;;;;;22.40;71.70;;;;;;10140224;28;94308;-63
2023/08/12 05:42:38;;;;;;;;;;;22.40;71.80;;;;;;10136215;28;94662;-65
2023/08/12 05:47:40;;;;;;;;;;;22.40;71.70;;;;;;10134099;28;93676;-64
2023/08/12 05:52:43;;;;;;;;;;;22.40;71.80;;;;;;10128421;28;94275;-65
2023/08/12 05:57:45;;;;;;;;;;;22.40;71.80;;;;;;10140278;28;93917;-65
2023/08/12 06:02:47;;;;;;;;;;;22.40;71.70;;;;;;10134786;28;97392;-63
2023/08/12 06:07:53;;;;;;;;;;;22.40;71.50;;;;;;10134363;28;94472;-63
2023/08/12 06:12:55;;;;;;;;;;;22.40;71.70;;;;;;10124412;28;94562;-63
2023/08/12 06:17:57;;;;;;;;;;;22.40;71.60;;;;;;10142762;28;93861;-65
2023/08/12 06:23:01;;;;;;;;;;;22.40;71.60;;;;;;10141150;28;93627;-63
2023/08/12 06:28:04;;;;;;;;;;;22.40;71.70;;;;;;10159154;28;93158;-63
2023/08/12 06:33:06;;;;;;;;;;;22.40;71.60;;;;;;10145517;28;96527;-63
2023/08/12 06:38:11;;;;;;;;;;;22.40;71.50;;;;;;10146726;28;93110;-63
2023/08/12 06:43:13;;;;;;;;;;;22.40;71.60;;;;;;10155159;28;93573;-63
2023/08/12 06:48:15;;;;;;;;;;;22.40;71.70;;;;;;10135458;28;95723;-63
2023/08/12 06:53:17;;;;;;;;;;;22.50;71.70;;;;;;10137945;28;96341;-63
2023/08/12 06:58:19;;;;;;;;;;;22.40;71.70;;;;;;10144731;28;93408;-63
2023/08/12 07:03:21;;;;;;;;;;;22.50;71.70;;;;;;10140402;28;94357;-63
2023/08/12 07:08:24;;;;;;;;;;;22.40;71.70;;;;;;10134091;28;95173;-62
2023/08/12 07:13:26;;;;;;;;;;;22.50;71.70;;;;;;10160373;28;93569;-63
2023/08/12 07:18:29;;;;;;;;;;;22.40;71.80;;;;;;10124834;28;93652;-63
2023/08/12 07:23:32;;;;;;;;;;;22.50;72.00;;;;;;10127262;28;94823;-62
2023/08/12 07:28:34;;;;;;;;;;;22.50;72.10;;;;;;10154755;28;94222;-63
2023/08/12 07:33:36;;;;;;;;;;;22.60;72.30;;;;;;10132044;28;94064;-63
2023/08/12 07:38:38;;;;;;;;;;;22.60;72.70;;;;;;10156683;28;96016;-63
2023/08/12 07:43:40;;;;;;;;;;;22.60;72.70;;;;;;10136694;28;95816;-62
2023/08/12 07:48:42;;;;;;;;;;;22.60;72.70;;;;;;10144267;28;93756;-61
2023/08/12 07:53:45;;;;;;;;;;;22.60;72.90;;;;;;10134920;28;93447;-62
2023/08/12 07:58:48;;;;;;;;;;;22.60;72.70;;;;;;10140640;28;96091;-62
2023/08/12 08:03:50;;;;;;;;;;;22.60;72.50;;;;;;10138686;28;93642;-62
2023/08/12 08:08:52;;;;;;;;;;;22.50;72.70;;;;;;10132004;28;94902;-62
2023/08/12 08:13:54;;;;;;;;;;;22.50;72.90;;;;;;10144276;28;94034;-63
2023/08/12 08:18:57;;;;;;;;;;;22.50;73.10;;;;;;10130214;28;93237;-63
2023/08/12 08:23:59;;;;;;;;;;;22.50;73.10;;;;;;10139749;28;94049;-63
2023/08/12 08:29:02;;;;;;;;;;;22.50;72.60;;;;;;10131384;28;96880;-65
2023/08/12 08:34:09;;;;;;;;;;;22.50;73.10;;;;;;10131589;28;97498;-64
2023/08/12 08:39:11;;;;;;;;;;;22.60;72.70;;;;;;10142319;28;93763;-63
2023/08/12 08:44:13;;;;;;;;;;;22.50;73.20;;;;;;10143505;28;93825;-63
2023/08/12 08:49:16;;;;;;;;;;;22.50;73.40;;;;;;10137933;28;94185;-63
2023/08/12 08:54:18;;;;;;;;;;;22.50;73.50;;;;;;10105786;28;95965;-62
2023/08/12 08:59:21;;;;;;;;;;;22.50;73.60;;;;;;10148383;28;94409;-62
2023/08/12 09:04:25;;;;;;;;;;;22.50;73.60;;;;;;10129345;28;93669;-62
2023/08/12 09:09:28;;;;;;;;;;;22.50;73.60;;;;;;10142529;28;93601;-63
2023/08/12 09:14:31;;;;;;;;;;;22.50;73.50;;;;;;10125867;28;93276;-63
2023/08/12 09:19:33;;;;;;;;;;;22.50;73.40;;;;;;10123480;28;94115;-64
2023/08/12 09:24:35;;;;;;;;;;;22.50;73.40;;;;;;10124996;28;96783;-63
2023/08/12 09:29:37;;;;;;;;;;;22.50;73.40;;;;;;10140543;28;94408;-63
2023/08/12 09:34:53;;;;;;;;;;;22.50;73.60;;;;;;10132820;28;93479;-63
2023/08/12 09:39:56;;;;;;;;;;;22.50;73.70;;;;;;10154084;28;94399;-63
2023/08/12 09:44:59;;;;;;;;;;;22.50;73.80;;;;;;10162383;28;93835;-62
2023/08/12 09:50:01;;;;;;;;;;;22.50;73.80;;;;;;10138637;28;94810;-62
2023/08/12 09:55:06;;;;;;;;;;;22.50;73.70;;;;;;10120376;28;94935;-62
2023/08/12 10:00:13;;;;;;;;;;;22.50;73.70;;;;;;10136236;28;93193;-61
2023/08/12 10:05:31;;;;;;;;;;;22.50;73.30;;;;;;10125308;28;95199;-63
2023/08/12 10:10:35;;;;;;;;;;;22.50;73.30;;;;;;10121889;28;94958;-61
2023/08/12 10:15:37;;;;;;;;;;;22.60;73.30;;;;;;10115799;28;96795;-63
2023/08/12 10:20:44;;;;;;;;;;;22.60;73.20;;;;;;10119078;28;93535;-61
2023/08/12 10:25:47;;;;;;;;;;;22.70;73.50;;;;;;10117022;28;95190;-61
2023/08/12 10:30:49;;;;;;;;;;;22.90;72.80;;;;;;10142354;28;93352;-60
2023/08/12 10:35:50;;;;;;;;;;;23.30;72.10;;;;;;10124071;28;95942;-59
2023/08/12 10:40:52;;;;;;;;;;;23.30;71.50;;;;;;10156206;28;94395;-60
2023/08/12 10:45:54;;;;;;;;;;;23.30;71.10;;;;;;10147483;28;93554;-59
2023/08/12 10:50:59;;;;;;;;;;;23.10;70.80;;;;;;10150985;28;113207;-60
2023/08/12 10:56:03;;;;;;;;;;;23.00;72.80;;;;;;10135420;28;93984;-60
2023/08/12 11:01:10;;;;;;;;;;;22.90;72.80;;;;;;10133645;28;95651;-62
2023/08/12 11:06:12;;;;;;;;;;;23.00;72.60;;;;;;10143292;28;95645;-61
2023/08/12 11:11:22;;;;;;;;;;;23.10;72.30;;;;;;10138085;28;94121;-62
2023/08/12 11:16:36;;;;;;;;;;;23.10;71.70;;;;;;10151403;28;95061;-62
2023/08/12 11:21:39;;;;;;;;;;;23.00;71.40;;;;;;10155189;28;95213;-62
2023/08/12 11:26:41;;;;;;;;;;;23.00;70.80;;;;;;10138647;28;94187;-63
2023/08/12 11:31:43;;;;;;;;;;;23.10;70.90;;;;;;10156886;28;94490;-63
2023/08/12 11:36:46;;;;;;;;;;;23.20;71.70;;;;;;10137828;28;93495;-62
2023/08/12 11:41:48;;;;;;;;;;;23.30;72.20;;;;;;10140903;28;94027;-64
2023/08/12 11:46:50;;;;;;;;;;;23.50;72.70;;;;;;10141503;28;93521;-62
2023/08/12 11:51:52;;;;;;;;;;;23.50;71.80;;;;;;10146901;28;95149;-62
2023/08/12 11:56:55;;;;;;;;;;;23.60;73.20;;;;;;10149818;28;97294;-63
2023/08/12 12:01:57;;;;;;;;;;;23.60;74.70;;;;;;10170661;28;93956;-62
2023/08/12 12:07:00;;;;;;;;;;;23.60;73.80;;;;;;10141355;28;93181;-62
2023/08/12 12:12:03;;;;;;;;;;;23.60;73.30;;;;;;10129405;28;95336;-61
2023/08/12 12:17:09;;;;;;;;;;;23.60;72.50;;;;;;10153365;28;93492;-64
2023/08/12 12:22:11;;;;;;;;;;;23.60;71.10;;;;;;10157168;28;92799;-63
2023/08/12 12:27:14;;;;;;;;;;;23.50;70.00;;;;;;10155654;28;93471;-63
2023/08/12 12:32:20;;;;;;;;;;;23.50;68.70;;;;;;10132910;28;93708;-63
2023/08/12 12:37:21;;;;;;;;;;;23.40;68.10;;;;;;10132264;28;95311;-63
2023/08/12 12:42:23;;;;;;;;;;;23.40;67.80;;;;;;10160744;28;94503;-63
2023/08/12 12:47:25;;;;;;;;;;;23.40;67.80;;;;;;10152373;28;96339;-63
2023/08/12 12:52:27;;;;;;;;;;;23.40;67.50;;;;;;10159735;28;93769;-62
2023/08/12 12:57:29;;;;;;;;;;;23.40;67.80;;;;;;10160828;28;94705;-63
2023/08/12 13:02:31;;;;;;;;;;;23.40;66.40;;;;;;10145169;28;95655;-63
2023/08/12 13:07:33;;;;;;;;;;;23.40;65.80;;;;;;10157961;28;93482;-62
2023/08/12 13:12:35;;;;;;;;;;;23.40;66.00;;;;;;10160163;28;94860;-64
2023/08/12 13:17:37;;;;;;;;;;;23.50;66.20;;;;;;10152272;28;93340;-68
2023/08/12 13:22:39;;;;;;;;;;;23.50;65.40;;;;;;10140143;28;92787;-61
2023/08/12 13:27:41;;;;;;;;;;;23.50;64.40;;;;;;10158034;28;93613;-62
2023/08/12 13:32:43;;;;;;;;;;;23.50;63.70;;;;;;10153681;28;93745;-61
2023/08/12 13:37:45;;;;;;;;;;;23.60;64.00;;;;;;10146143;28;96878;-61
2023/08/12 13:42:47;;;;;;;;;;;23.60;64.30;;;;;;10166815;28;93499;-64
2023/08/12 13:47:50;;;;;;;;;;;23.60;63.50;;;;;;10157608;28;93499;-64
2023/08/12 13:52:52;;;;;;;;;;;23.60;62.80;;;;;;10153058;28;93573;-63
2023/08/12 13:57:54;;;;;;;;;;;23.60;62.50;;;;;;10149860;28;94476;-63
2023/08/12 14:02:56;;;;;;;;;;;23.60;62.60;;;;;;10149406;28;93484;-63
2023/08/12 14:07:59;;;;;;;;;;;23.60;63.00;;;;;;10160357;28;94626;-64
2023/08/12 14:13:01;;;;;;;;;;;23.60;63.10;;;;;;10149886;28;93728;-64
2023/08/12 14:18:03;;;;;;;;;;;23.60;63.00;;;;;;10140029;28;94479;-64
2023/08/12 14:23:05;;;;;;;;;;;23.60;61.40;;;;;;10147286;28;94414;-64
2023/08/12 14:28:07;;;;;;;;;;;23.60;61.90;;;;;;10152993;28;96261;-64
2023/08/12 14:33:08;;;;;;;;;;;23.60;62.30;;;;;;10149334;28;92809;-64
2023/08/12 14:38:10;;;;;;;;;;;23.60;62.20;;;;;;10141739;28;94632;-64
2023/08/12 14:43:12;;;;;;;;;;;23.60;61.90;;;;;;10147489;28;94177;-64
2023/08/12 14:48:18;;;;;;;;;;;23.60;61.70;;;;;;10151005;28;93483;-63
2023/08/12 14:53:20;;;;;;;;;;;23.70;61.70;;;;;;10152862;28;93535;-64
2023/08/12 14:58:21;;;;;;;;;;;23.60;61.50;;;;;;10146736;28;96021;-64
2023/08/12 15:03:23;;;;;;;;;;;23.60;61.30;;;;;;10156771;28;92678;-63
2023/08/12 15:08:25;;;;;;;;;;;23.60;61.30;;;;;;10159061;28;93620;-64
2023/08/12 15:13:27;;;;;;;;;;;23.60;61.60;;;;;;10138341;28;93957;-62
2023/08/12 15:18:29;;;;;;;;;;;23.70;61.70;;;;;;10149305;28;96340;-62
2023/08/12 15:23:33;;;;;;;;;;;23.60;61.60;;;;;;10136577;28;93251;-62
2023/08/12 15:28:34;;;;;;;;;;;23.60;61.30;;;;;;10139998;28;94556;-61
2023/08/12 15:33:36;;;;;;;;;;;23.60;61.00;;;;;;10144248;28;93611;-63
2023/08/12 15:38:39;;;;;;;;;;;23.60;61.30;;;;;;10155799;28;93627;-62
2023/08/12 15:43:43;;;;;;;;;;;23.70;61.50;;;;;;10152906;28;93648;-60
2023/08/12 15:48:46;;;;;;;;;;;23.80;61.20;;;;;;10122583;28;93851;-61
2023/08/12 15:53:48;;;;;;;;;;;23.80;60.70;;;;;;10152197;28;93054;-61
2023/08/12 15:58:50;;;;;;;;;;;24.10;61.30;;;;;;10137867;28;94285;-62
2023/08/12 16:03:51;;;;;;;;;;;24.30;64.20;;;;;;10141102;28;94360;-62
2023/08/12 16:08:53;;;;;;;;;;;24.60;64.60;;;;;;10156266;28;97554;-63
2023/08/12 16:14:15;;;;;;;;;;;25.00;61.60;;;;;;10143536;28;94792;-65
2023/08/12 16:19:17;;;;;;;;;;;25.00;60.70;;;;;;10138406;28;94696;-62
2023/08/12 16:24:19;;;;;;;;;;;24.90;60.80;;;;;;10127518;28;93768;-62
2023/08/12 16:29:21;;;;;;;;;;;24.80;60.50;;;;;;10145441;28;93486;-62
2023/08/12 16:34:22;;;;;;;;;;;24.70;59.70;;;;;;10151568;28;93514;-61
2023/08/12 16:39:25;;;;;;;;;;;24.60;60.00;;;;;;10147941;28;94317;-62
2023/08/12 16:44:27;;;;;;;;;;;24.60;59.70;;;;;;10154837;28;93046;-62
2023/08/12 16:49:29;;;;;;;;;;;24.50;59.60;;;;;;10176850;28;94751;-62
2023/08/12 16:54:31;;;;;;;;;;;24.50;59.70;;;;;;10134408;28;93898;-62
2023/08/12 16:59:33;;;;;;;;;;;24.40;59.70;;;;;;10150682;28;95753;-61
2023/08/12 17:04:34;;;;;;;;;;;24.40;59.50;;;;;;10151524;28;93413;-62
2023/08/12 17:09:36;;;;;;;;;;;24.40;59.50;;;;;;10158048;28;93276;-61
2023/08/12 17:14:38;;;;;;;;;;;24.40;59.20;;;;;;10133121;28;93801;-62
2023/08/12 17:19:40;;;;;;;;;;;24.40;57.80;;;;;;10153354;28;94159;-63
2023/08/12 17:24:42;;;;;;;;;;;24.30;57.80;;;;;;10155165;28;93183;-63
2023/08/12 17:29:43;;;;;;;;;;;24.30;57.40;;;;;;10154286;28;92725;-62
2023/08/12 17:34:45;;;;;;;;;;;24.30;57.30;;;;;;10156985;28;93399;-63
2023/08/12 17:39:48;;;;;;;;;;;24.30;57.60;;;;;;10136996;28;94023;-63
2023/08/12 17:44:49;;;;;;;;;;;24.30;57.90;;;;;;10133231;28;93020;-63
2023/08/12 17:49:51;;;;;;;;;;;24.40;58.50;;;;;;10162912;28;95610;-63
2023/08/12 17:54:53;;;;;;;;;;;24.40;58.70;;;;;;10152819;28;93420;-63
2023/08/12 17:59:54;;;;;;;;;;;24.40;58.80;;;;;;10137470;28;93626;-63
2023/08/12 18:04:56;;;;;;;;;;;24.40;59.00;;;;;;10141045;28;93647;-62
2023/08/12 18:09:58;;;;;;;;;;;24.40;59.30;;;;;;10161364;28;94413;-63
2023/08/12 18:15:01;;;;;;;;;;;24.40;59.60;;;;;;10160217;28;94106;-63
2023/08/12 18:20:04;;;;;;;;;;;24.40;60.20;;;;;;10145106;28;94895;-62
2023/08/12 18:25:06;;;;;;;;;;;24.40;60.30;;;;;;10139724;28;93016;-63
2023/08/12 18:30:08;;;;;;;;;;;24.40;60.40;;;;;;10150840;28;94612;-64
2023/08/12 18:35:11;;;;;;;;;;;24.40;60.50;;;;;;10145132;28;95038;-62
2023/08/12 18:40:13;;;;;;;;;;;24.30;60.60;;;;;;10152348;28;96634;-62
2023/08/12 18:45:14;;;;;;;;;;;24.30;60.70;;;;;;10159714;28;94772;-63
2023/08/12 18:50:16;;;;;;;;;;;24.20;60.80;;;;;;10153768;28;93971;-63
2023/08/12 18:55:20;;;;;;;;;;;24.20;60.80;;;;;;10152273;28;94428;-63
2023/08/12 19:00:23;;;;;;;;;;;24.20;61.00;;;;;;10152346;28;94054;-63
2023/08/12 19:05:26;;;;;;;;;;;24.20;61.00;;;;;;10152139;28;93865;-63
2023/08/12 19:10:28;;;;;;;;;;;24.10;61.10;;;;;;10147239;28;95129;-63
2023/08/12 19:15:31;;;;;;;;;;;24.10;61.20;;;;;;10148250;28;92969;-62
2023/08/12 19:20:33;;;;;;;;;;;24.10;61.20;;;;;;10158943;28;93650;-62
2023/08/12 19:25:35;;;;;;;;;;;24.10;62.20;;;;;;10145628;28;94915;-62
2023/08/12 19:30:37;;;;;;;;;;;24.10;61.30;;;;;;10165210;28;96872;-63
2023/08/12 19:35:39;;;;;;;;;;;24.00;61.30;;;;;;10151935;28;93359;-63
2023/08/12 19:40:40;;;;;;;;;;;24.00;61.30;;;;;;10152919;28;93374;-63
2023/08/12 19:45:42;;;;;;;;;;;24.00;61.40;;;;;;10159562;28;93966;-62
2023/08/12 19:50:46;;;;;;;;;;;24.00;61.60;;;;;;10172331;28;94898;-63
2023/08/12 19:55:48;;;;;;;;;;;24.00;61.60;;;;;;10164075;28;94908;-63
2023/08/12 20:00:50;;;;;;;;;;;24.00;61.60;;;;;;10148578;28;94048;-62
2023/08/12 20:05:52;;;;;;;;;;;24.00;61.40;;;;;;10173586;28;92713;-62
2023/08/12 20:10:54;;;;;;;;;;;24.00;61.40;;;;;;10143329;28;93441;-62
2023/08/12 20:15:58;;;;;;;;;;;23.90;61.40;;;;;;10158652;28;93409;-65
2023/08/12 20:21:00;;;;;;;;;;;23.90;61.40;;;;;;10156162;28;96821;-62
2023/08/12 20:26:04;;;;;;;;;;;23.90;61.50;;;;;;10143429;28;94246;-63
2023/08/12 20:31:06;;;;;;;;;;;23.90;61.70;;;;;;10153256;28;93452;-62
2023/08/12 20:36:08;;;;;;;;;;;23.90;61.70;;;;;;10155483;28;94753;-62
2023/08/12 20:41:09;;;;;;;;;;;23.80;61.60;;;;;;10142309;28;93500;-62
2023/08/12 20:46:11;;;;;;;;;;;23.80;61.60;;;;;;10151652;28;93796;-62
2023/08/12 20:51:13;;;;;;;;;;;23.80;61.60;;;;;;10152739;28;94584;-67
2023/08/12 20:56:14;;;;;;;;;;;23.80;61.60;;;;;;10155772;28;93710;-61
2023/08/12 21:01:17;;;;;;;;;;;23.80;61.60;;;;;;10149508;28;94060;-62
2023/08/12 21:06:19;;;;;;;;;;;23.80;61.50;;;;;;10165513;28;94016;-62
2023/08/12 21:11:20;;;;;;;;;;;23.80;61.50;;;;;;10132906;28;96413;-62
2023/08/12 21:16:22;;;;;;;;;;;23.80;61.50;;;;;;10156816;28;93798;-61
2023/08/12 21:21:24;;;;;;;;;;;23.80;61.50;;;;;;10156875;28;94362;-61
2023/08/12 21:26:25;;;;;;;;;;;23.70;61.40;;;;;;10151870;28;93222;-62
2023/08/12 21:31:27;;;;;;;;;;;23.70;61.30;;;;;;10158526;28;94393;-61
2023/08/12 21:36:29;;;;;;;;;;;23.70;61.40;;;;;;10155177;28;93959;-62
2023/08/12 21:41:34;;;;;;;;;;;23.70;61.30;;;;;;10149787;28;93394;-61
2023/08/12 21:46:36;;;;;;;;;;;23.60;61.20;;;;;;10155749;28;92623;-62
2023/08/12 21:51:38;;;;;;;;;;;23.70;61.20;;;;;;10143138;28;94431;-62
2023/08/12 21:56:40;;;;;;;;;;;23.60;61.20;;;;;;10157135;28;93431;-62
2023/08/12 22:01:43;;;;;;;;;;;23.60;61.20;;;;;;10147912;28;97041;-62
2023/08/12 22:06:45;;;;;;;;;;;23.60;61.30;;;;;;10136233;28;93570;-62
2023/08/12 22:11:47;;;;;;;;;;;23.60;61.10;;;;;;10146939;28;93807;-62
2023/08/12 22:16:49;;;;;;;;;;;23.60;61.20;;;;;;10146724;28;94407;-62
2023/08/12 22:21:52;;;;;;;;;;;23.60;61.20;;;;;;10142218;28;94385;-62
2023/08/12 22:26:58;;;;;;;;;;;23.50;61.10;;;;;;10152096;28;94540;-62
2023/08/12 22:31:59;;;;;;;;;;;23.50;61.20;;;;;;10148685;28;93462;-62
2023/08/12 22:37:01;;;;;;;;;;;23.50;61.20;;;;;;10144474;28;94034;-62
2023/08/12 22:42:03;;;;;;;;;;;23.50;61.20;;;;;;10142675;28;93562;-62
2023/08/12 22:47:05;;;;;;;;;;;23.40;61.20;;;;;;10148477;28;94734;-62
2023/08/12 22:52:06;;;;;;;;;;;23.50;61.30;;;;;;10150220;28;96857;-62
2023/08/12 22:57:08;;;;;;;;;;;23.40;61.20;;;;;;10156106;28;95115;-62
2023/08/12 23:02:10;;;;;;;;;;;23.40;61.30;;;;;;10152083;28;94877;-62
2023/08/12 23:07:12;;;;;;;;;;;23.40;61.30;;;;;;10142671;28;93531;-61
2023/08/12 23:12:14;;;;;;;;;;;23.30;61.30;;;;;;10159646;28;94397;-62
2023/08/12 23:17:17;;;;;;;;;;;23.30;61.40;;;;;;10137784;28;93740;-63
2023/08/12 23:22:18;;;;;;;;;;;23.30;61.30;;;;;;10156080;28;94509;-62
2023/08/12 23:27:20;;;;;;;;;;;23.30;61.40;;;;;;10150949;28;93695;-62
2023/08/12 23:32:22;;;;;;;;;;;23.20;61.40;;;;;;10146943;28;94097;-63
2023/08/12 23:37:24;;;;;;;;;;;23.20;61.40;;;;;;10153283;28;93436;-62
2023/08/12 23:42:28;;;;;;;;;;;23.20;61.50;;;;;;10166415;28;95758;-62
2023/08/12 23:47:30;;;;;;;;;;;23.20;61.60;;;;;;10123497;28;92609;-62
2023/08/12 23:52:32;;;;;;;;;;;23.20;61.50;;;;;;10159273;28;93920;-62
2023/08/12 23:57:34;;;;;;;;;;;23.20;61.60;;;;;;10161971;28;93376;-62
